createdAt,value
2022-12-11T00:02:04.827Z,99754.64
2022-12-11T00:04:36.867Z,99757.21
2022-12-11T00:07:06.716Z,99755.39
2022-12-11T00:09:35.164Z,99753.54
2022-12-11T00:12:05.417Z,99748.30
2022-12-11T00:14:34.022Z,99755.93
2022-12-11T00:17:03.573Z,99753.45
2022-12-11T00:19:32.948Z,99751.45
2022-12-11T00:22:06.456Z,99749.70
2022-12-11T00:24:34.708Z,99748.97
2022-12-11T00:27:03.171Z,99753.17
2022-12-11T00:29:31.815Z,99745.21
2022-12-11T00:32:00.011Z,99742.98
2022-12-11T00:34:28.341Z,99740.52
2022-12-11T00:36:56.732Z,99743.33
2022-12-11T00:39:25.433Z,99743.98
2022-12-11T00:41:57.150Z,99747.04
2022-12-11T00:44:25.364Z,99742.73
2022-12-11T00:46:53.815Z,99739.50
2022-12-11T00:49:24.539Z,99737.95
2022-12-11T00:51:52.868Z,99736.59
2022-12-11T00:54:22.324Z,99738.15
2022-12-11T00:56:51.283Z,99735.19
2022-12-11T00:59:19.721Z,99734.59
2022-12-11T01:01:47.936Z,99736.81
2022-12-11T01:04:16.081Z,99734.66
2022-12-11T01:06:44.704Z,99736.17
2022-12-11T01:09:32.017Z,99740.94
2022-12-11T01:12:00.512Z,99746.53
2022-12-11T01:14:28.654Z,99743.66
2022-12-11T01:16:56.756Z,99743.35
2022-12-11T01:19:25.602Z,99741.45
2022-12-11T01:21:53.697Z,99741.34
2022-12-11T01:24:21.933Z,99733.21
2022-12-11T01:26:50.246Z,99733.89
2022-12-11T01:29:18.315Z,99737.84
2022-12-11T01:31:46.403Z,99739.02
2022-12-11T01:34:14.936Z,99742.57
2022-12-11T01:36:43.049Z,99746.86
2022-12-11T01:39:11.463Z,99741.98
2022-12-11T01:41:40.258Z,99738.84
2022-12-11T01:44:31.663Z,99740.58
2022-12-11T01:47:01.109Z,99740.41
2022-12-11T01:49:29.696Z,99740.06
2022-12-11T01:52:07.759Z,99741.29
2022-12-11T01:54:36.103Z,99734.90
2022-12-11T01:57:09.467Z,99731.98
2022-12-11T01:59:41.323Z,99734.61
2022-12-11T02:02:16.028Z,99734.59
2022-12-11T02:04:46.329Z,99732.92
2022-12-11T02:07:15.416Z,99727.74
2022-12-11T02:09:46.381Z,99726.45
2022-12-11T02:12:26.851Z,99721.67
2022-12-11T02:15:13.542Z,99719.92
2022-12-11T02:18:09.278Z,99714.73
2022-12-11T02:20:46.694Z,99712.16
2022-12-11T02:23:17.877Z,99714.16
2022-12-11T02:25:56.402Z,99719.79
2022-12-11T02:28:29.686Z,99718.20
2022-12-11T02:31:04.564Z,99718.65
2022-12-11T02:33:50.426Z,99718.27
2022-12-11T02:36:21.528Z,99715.81
2022-12-11T02:38:53.635Z,99712.09
2022-12-11T02:41:23.720Z,99711.80
2022-12-11T02:43:53.956Z,99715.73
2022-12-11T02:46:25.027Z,99715.38
2022-12-11T02:48:55.059Z,99719.09
2022-12-11T02:51:28.911Z,99715.60
2022-12-11T02:53:59.451Z,99712.66
2022-12-11T02:56:40.596Z,99718.09
2022-12-11T02:59:19.785Z,99720.91
2022-12-11T03:01:48.100Z,99720.44
2022-12-11T03:04:16.558Z,99719.48
2022-12-11T03:06:51.343Z,99718.82
2022-12-11T03:09:20.177Z,99719.64
2022-12-11T03:11:48.255Z,99716.73
2022-12-11T03:14:16.474Z,99717.41
2022-12-11T03:16:57.926Z,99714.85
2022-12-11T03:19:36.448Z,99718.59
2022-12-11T03:22:17.089Z,99717.42
2022-12-11T03:24:57.989Z,99716.36
2022-12-11T03:27:28.994Z,99716.95
2022-12-11T03:30:06.129Z,99717.50
2022-12-11T03:32:50.521Z,99718.48
2022-12-11T03:35:37.555Z,99714.98
2022-12-11T03:38:11.109Z,99715.04
2022-12-11T03:40:41.791Z,99714.09
2022-12-11T03:43:11.542Z,99705.64
2022-12-11T03:45:41.502Z,99706.61
2022-12-11T03:48:10.259Z,99707.54
2022-12-11T03:50:40.074Z,99712.02
2022-12-11T03:53:08.944Z,99714.20
2022-12-11T03:55:40.186Z,99713.84
2022-12-11T03:58:08.559Z,99710.94
2022-12-11T04:00:37.195Z,99708.44
2022-12-11T04:03:14.846Z,99718.25
2022-12-11T04:05:49.635Z,99717.20
2022-12-11T04:08:23.067Z,99721.70
2022-12-11T04:11:12.253Z,99725.08
2022-12-11T04:13:41.709Z,99728.25
2022-12-11T04:16:10.070Z,99725.85
2022-12-11T04:18:57.092Z,99728.48
2022-12-11T04:21:43.823Z,99733.58
2022-12-11T04:24:15.381Z,99731.30
2022-12-11T04:26:45.603Z,99737.05
2022-12-11T04:29:14.192Z,99736.73
2022-12-11T04:31:42.651Z,99737.73
2022-12-11T04:34:10.828Z,99732.05
2022-12-11T04:36:38.933Z,99733.74
2022-12-11T04:39:07.115Z,99732.45
2022-12-11T04:41:37.287Z,99729.45
2022-12-11T04:44:05.747Z,99728.82
2022-12-11T04:46:34.492Z,99727.34
2022-12-11T04:49:02.728Z,99731.25
2022-12-11T04:51:30.914Z,99734.92
2022-12-11T04:54:00.378Z,99734.33
2022-12-11T04:56:28.559Z,99730.61
2022-12-11T04:58:56.632Z,99725.84
2022-12-11T05:01:24.796Z,99726.84
2022-12-11T05:03:53.025Z,99725.74
2022-12-11T05:06:21.152Z,99723.02
2022-12-11T05:08:49.280Z,99730.27
2022-12-11T05:11:18.262Z,99730.16
2022-12-11T05:13:46.477Z,99724.75
2022-12-11T05:16:16.516Z,99721.31
2022-12-11T05:18:45.146Z,99713.77
2022-12-11T05:21:15.317Z,99708.89
2022-12-11T05:23:43.518Z,99710.71
2022-12-11T05:26:15.262Z,99709.94
2022-12-11T05:28:43.705Z,99710.66
2022-12-11T05:31:15.098Z,99709.20
2022-12-11T05:33:45.332Z,99710.60
2022-12-11T05:36:33.630Z,99712.73
2022-12-11T05:39:04.063Z,99719.27
2022-12-11T05:41:34.080Z,99718.80
2022-12-11T05:44:02.162Z,99718.59
2022-12-11T05:46:31.408Z,99719.15
2022-12-11T05:49:01.925Z,99719.46
2022-12-11T05:51:30.898Z,99720.08
2022-12-11T05:53:59.132Z,99713.31
2022-12-11T05:56:33.421Z,99712.58
2022-12-11T05:59:03.482Z,99703.08
2022-12-11T06:01:33.245Z,99700.89
2022-12-11T06:04:02.340Z,99702.54
2022-12-11T06:06:30.673Z,99700.52
2022-12-11T06:09:00.771Z,99695.73
2022-12-11T06:11:33.485Z,99691.20
2022-12-11T06:14:03.417Z,99690.72
2022-12-11T06:16:32.349Z,99687.45
2022-12-11T06:19:00.618Z,99677.77
2022-12-11T06:21:31.384Z,99669.00
2022-12-11T06:24:03.119Z,99673.30
2022-12-11T06:26:32.328Z,99672.48
2022-12-11T06:29:00.544Z,99668.56
2022-12-11T06:31:28.920Z,99666.71
2022-12-11T06:33:58.244Z,99668.29
2022-12-11T06:36:28.708Z,99662.69
2022-12-11T06:38:59.144Z,99657.10
2022-12-11T06:41:27.585Z,99657.39
2022-12-11T06:43:55.689Z,99659.04
2022-12-11T06:46:27.846Z,99670.48
2022-12-11T06:48:56.122Z,99670.95
2022-12-11T06:51:24.674Z,99679.86
2022-12-11T06:53:56.351Z,99686.02
2022-12-11T06:56:28.975Z,99678.15
2022-12-11T06:59:02.891Z,99674.38
2022-12-11T07:01:34.096Z,99674.30
2022-12-11T07:04:02.559Z,99670.64
2022-12-11T07:06:34.747Z,99673.67
2022-12-11T07:09:07.196Z,99671.45
2022-12-11T07:11:36.586Z,99670.48
2022-12-11T07:14:05.496Z,99669.63
2022-12-11T07:16:37.885Z,99665.94
2022-12-11T07:19:06.737Z,99666.44
2022-12-11T07:21:34.882Z,99671.13
2022-12-11T07:24:03.692Z,99672.08
2022-12-11T07:26:32.986Z,99672.92
2022-12-11T07:29:04.493Z,99675.83
2022-12-11T07:31:33.200Z,99676.54
2022-12-11T07:34:04.478Z,99674.66
2022-12-11T07:36:35.151Z,99668.75
2022-12-11T07:39:05.127Z,99673.20
2022-12-11T07:41:34.292Z,99674.11
2022-12-11T07:44:03.921Z,99674.75
2022-12-11T07:46:34.104Z,99677.02
2022-12-11T07:49:02.972Z,99679.73
2022-12-11T07:51:36.419Z,99681.95
2022-12-11T07:54:10.969Z,99681.02
2022-12-11T07:56:43.690Z,99680.59
2022-12-11T07:59:12.649Z,99679.31
2022-12-11T08:01:42.252Z,99680.89
2022-12-11T08:04:15.920Z,99687.09
2022-12-11T08:06:44.447Z,99679.78
2022-12-11T08:09:20.944Z,99678.81
2022-12-11T08:11:50.870Z,99668.36
2022-12-11T08:14:20.013Z,99664.60
2022-12-11T08:16:49.100Z,99655.27
2022-12-11T08:19:18.057Z,99663.11
2022-12-11T08:21:46.995Z,99661.52
2022-12-11T08:24:16.572Z,99658.98
2022-12-11T08:26:44.718Z,99655.94
2022-12-11T08:29:12.993Z,99656.05
2022-12-11T08:31:42.204Z,99662.38
2022-12-11T08:34:13.958Z,99669.65
2022-12-11T08:36:42.227Z,99671.59
2022-12-11T08:39:10.351Z,99672.12
2022-12-11T08:41:38.635Z,99668.77
2022-12-11T08:44:16.253Z,99665.52
2022-12-11T08:46:47.147Z,99664.09
2022-12-11T08:49:15.430Z,99663.93
2022-12-11T08:51:44.082Z,99664.21
2022-12-11T08:54:16.002Z,99664.95
2022-12-11T08:56:44.222Z,99666.36
2022-12-11T08:59:12.372Z,99662.56
2022-12-11T09:01:40.647Z,99663.29
2022-12-11T09:04:09.063Z,99657.47
2022-12-11T09:06:37.155Z,99657.45
2022-12-11T09:09:05.675Z,99650.46
2022-12-11T09:11:36.454Z,99651.99
2022-12-11T09:14:07.902Z,99650.91
2022-12-11T09:16:40.612Z,99649.80
2022-12-11T09:19:16.592Z,99644.38
2022-12-11T09:21:45.379Z,99644.67
2022-12-11T09:24:14.320Z,99642.77
2022-12-11T09:26:42.653Z,99645.43
2022-12-11T09:29:12.434Z,99645.65
2022-12-11T09:31:40.926Z,99641.57
2022-12-11T09:34:12.633Z,99635.96
2022-12-11T09:36:42.203Z,99635.84
2022-12-11T09:39:12.946Z,99634.13
2022-12-11T09:42:20.169Z,99629.84
2022-12-11T09:44:55.311Z,99636.07
2022-12-11T09:47:26.217Z,99639.98
2022-12-11T09:50:09.718Z,99642.59
2022-12-11T09:53:04.689Z,99643.13
2022-12-11T09:55:46.075Z,99649.30
2022-12-11T09:58:18.852Z,99642.05
2022-12-11T10:00:52.743Z,99635.16
2022-12-11T10:03:46.616Z,99641.19
2022-12-11T10:06:38.543Z,99633.88
2022-12-11T10:09:25.611Z,99629.85
2022-12-11T10:12:02.493Z,99631.23
2022-12-11T10:14:33.432Z,99632.45
2022-12-11T10:17:12.646Z,99630.67
2022-12-11T10:19:42.517Z,99620.33
2022-12-11T10:22:33.347Z,99617.69
2022-12-11T10:25:23.553Z,99609.31
2022-12-11T10:27:52.497Z,99602.09
2022-12-11T10:30:21.127Z,99599.80
2022-12-11T10:33:11.482Z,99598.83
2022-12-11T10:35:45.862Z,99600.27
2022-12-11T10:38:31.462Z,99596.45
2022-12-11T10:41:06.278Z,99596.02
2022-12-11T10:43:41.736Z,99602.59
2022-12-11T10:46:23.427Z,99598.27
2022-12-11T10:48:53.762Z,99599.56
2022-12-11T10:51:25.225Z,99604.15
2022-12-11T10:54:00.369Z,99604.95
2022-12-11T10:56:34.271Z,99606.25
2022-12-11T10:59:02.927Z,99604.46
2022-12-11T11:01:33.138Z,99601.52
2022-12-11T11:04:06.800Z,99599.55
2022-12-11T11:06:34.982Z,99599.79
2022-12-11T11:09:04.339Z,99600.71
2022-12-11T11:11:39.626Z,99599.98
2022-12-11T11:14:17.891Z,99604.42
2022-12-11T11:16:48.581Z,99603.39
2022-12-11T11:19:27.052Z,99604.83
2022-12-11T11:22:02.290Z,99604.38
2022-12-11T11:24:39.865Z,99600.81
2022-12-11T11:27:30.221Z,99601.23
2022-12-11T11:30:03.405Z,99591.31
2022-12-11T11:32:36.520Z,99586.63
2022-12-11T11:35:29.258Z,99588.91
2022-12-11T11:38:18.791Z,99593.10
2022-12-11T11:41:04.793Z,99592.75
2022-12-11T11:43:40.819Z,99593.48
2022-12-11T11:46:18.586Z,99588.60
2022-12-11T11:48:53.985Z,99582.60
2022-12-11T11:51:34.692Z,99579.94
2022-12-11T11:54:30.213Z,99576.91
2022-12-11T11:56:59.901Z,99572.09
2022-12-11T11:59:45.677Z,99568.54
2022-12-11T12:02:16.883Z,99562.62
2022-12-11T12:04:46.811Z,99561.34
2022-12-11T12:07:18.349Z,99558.56
2022-12-11T12:09:54.376Z,99543.63
2022-12-11T12:12:29.756Z,99547.00
2022-12-11T12:15:41.567Z,99546.19
2022-12-11T12:18:20.310Z,99540.97
2022-12-11T12:21:03.068Z,99538.17
2022-12-11T12:23:56.189Z,99532.70
2022-12-11T12:26:31.224Z,99529.49
2022-12-11T12:29:16.820Z,99530.37
2022-12-11T12:31:59.209Z,99524.97
2022-12-11T12:34:38.150Z,99520.17
2022-12-11T12:37:06.212Z,99517.46
2022-12-11T12:40:11.461Z,99513.23
2022-12-11T12:43:06.547Z,99514.20
2022-12-11T12:46:08.231Z,99509.02
2022-12-11T12:48:36.593Z,99512.89
2022-12-11T12:51:05.425Z,99504.45
2022-12-11T12:53:36.969Z,99502.99
2022-12-11T12:56:06.541Z,99497.47
2022-12-11T12:58:34.945Z,99491.59
2022-12-11T13:01:17.992Z,99490.42
2022-12-11T13:04:08.649Z,99488.34
2022-12-11T13:06:47.453Z,99484.81
2022-12-11T13:09:23.669Z,99486.59
2022-12-11T13:11:57.825Z,99485.44
2022-12-11T13:14:32.702Z,99484.58
2022-12-11T13:17:21.111Z,99482.48
2022-12-11T13:19:53.094Z,99484.05
2022-12-11T13:22:24.010Z,99483.65
2022-12-11T13:24:52.165Z,99482.79
2022-12-11T13:27:43.030Z,99479.58
2022-12-11T13:30:14.296Z,99481.63
2022-12-11T13:33:00.926Z,99485.83
2022-12-11T13:35:30.854Z,99486.02
2022-12-11T13:38:07.307Z,99481.64
2022-12-11T13:40:40.218Z,99482.72
2022-12-11T13:43:19.080Z,99481.47
2022-12-11T13:45:51.040Z,99478.71
2022-12-11T13:48:25.000Z,99476.58
2022-12-11T13:50:54.138Z,99478.70
2022-12-11T13:53:24.022Z,99484.61
2022-12-11T13:56:01.774Z,99485.65
2022-12-11T13:58:34.037Z,99489.61
2022-12-11T14:01:08.301Z,99487.19
2022-12-11T14:03:40.216Z,99487.64
2022-12-11T14:06:18.220Z,99484.93
2022-12-11T14:08:52.091Z,99491.33
2022-12-11T14:11:55.038Z,99492.73
2022-12-11T14:14:49.952Z,99490.52
2022-12-11T14:17:30.648Z,99496.69
2022-12-11T14:20:03.162Z,99502.30
2022-12-11T14:22:31.438Z,99500.12
2022-12-11T14:25:03.789Z,99494.00
2022-12-11T14:27:31.958Z,99497.95
2022-12-11T14:30:11.455Z,99499.63
2022-12-11T14:32:45.154Z,99498.45
2022-12-11T14:35:43.858Z,99506.42
2022-12-11T14:38:37.560Z,99504.88
2022-12-11T14:41:14.379Z,99501.30
2022-12-11T14:48:22.328Z,99501.48
2022-12-11T14:50:58.053Z,99499.59
2022-12-11T14:53:28.026Z,99503.18
2022-12-11T14:55:57.978Z,99501.57
2022-12-11T14:58:28.102Z,99493.16
2022-12-11T15:01:00.740Z,99495.52
2022-12-11T15:03:35.213Z,99493.59
2022-12-11T15:06:26.182Z,99489.92
2022-12-11T15:08:55.238Z,99488.88
2022-12-11T15:11:30.431Z,99489.09
2022-12-11T15:14:03.138Z,99480.00
2022-12-11T15:16:38.626Z,99480.63
2022-12-11T15:19:07.055Z,99479.98
2022-12-11T15:21:36.999Z,99481.55
2022-12-11T15:24:07.176Z,99481.66
2022-12-11T15:26:57.377Z,99484.10
2022-12-11T15:34:27.070Z,99484.92
2022-12-11T15:37:03.320Z,99487.46
2022-12-11T15:40:06.808Z,99482.83
2022-12-11T15:42:41.882Z,99491.55
2022-12-11T15:45:23.139Z,99496.45
2022-12-11T15:47:52.891Z,99500.81
2022-12-11T15:50:28.529Z,99499.56
2022-12-11T15:53:00.494Z,99491.35
2022-12-11T15:55:36.137Z,99484.70
2022-12-11T15:58:17.698Z,99488.37
2022-12-11T16:00:55.374Z,99482.20
2022-12-11T16:04:01.814Z,99483.58
2022-12-11T16:06:34.430Z,99481.98
2022-12-11T16:09:34.896Z,99482.42
2022-12-11T16:12:06.792Z,99480.96
2022-12-11T16:14:38.338Z,99480.86
2022-12-11T16:17:26.160Z,99481.05
2022-12-11T16:20:08.178Z,99476.56
2022-12-11T16:22:47.338Z,99472.31
2022-12-11T16:25:20.921Z,99475.13
2022-12-11T16:30:49.939Z,99473.98
2022-12-11T16:33:18.642Z,99472.12
2022-12-11T16:35:49.795Z,99473.80
2022-12-11T16:38:43.048Z,99472.13
2022-12-11T16:43:57.627Z,99481.04
2022-12-11T16:46:32.510Z,99483.36
2022-12-11T16:49:00.773Z,99478.77
2022-12-11T16:51:29.031Z,99476.37
2022-12-11T16:53:57.261Z,99475.64
2022-12-11T16:56:26.784Z,99468.45
2022-12-11T16:58:55.248Z,99468.61
2022-12-11T17:01:23.536Z,99471.46
2022-12-11T17:03:53.444Z,99460.77
2022-12-11T17:06:21.979Z,99458.41
2022-12-11T17:08:55.027Z,99460.95
2022-12-11T17:11:27.874Z,99466.55
2022-12-11T17:13:59.497Z,99456.76
2022-12-11T17:16:34.275Z,99457.27
2022-12-11T17:19:03.682Z,99457.25
2022-12-11T17:21:34.141Z,99456.43
2022-12-11T17:24:02.382Z,99450.23
2022-12-11T17:26:31.088Z,99450.48
2022-12-11T17:29:01.386Z,99448.44
2022-12-11T17:31:29.899Z,99449.69
2022-12-11T17:34:03.411Z,99445.77
2022-12-11T17:36:31.882Z,99449.52
2022-12-11T17:39:00.032Z,99450.70
2022-12-11T17:41:28.183Z,99452.20
2022-12-11T17:44:01.125Z,99454.89
2022-12-11T17:46:29.428Z,99453.36
2022-12-11T17:49:00.271Z,99451.98
2022-12-11T17:51:28.703Z,99448.02
2022-12-11T17:53:57.392Z,99446.82
2022-12-11T17:56:26.203Z,99441.15
2022-12-11T17:58:57.072Z,99443.48
2022-12-11T18:01:25.486Z,99438.95
2022-12-11T18:03:53.925Z,99439.47
2022-12-11T18:06:27.161Z,99447.09
2022-12-11T18:09:30.042Z,99445.35
2022-12-11T18:11:59.060Z,99452.98
2022-12-11T18:14:59.186Z,99453.58
2022-12-11T18:17:38.649Z,99454.89
2022-12-11T18:20:24.676Z,99453.34
2022-12-11T18:22:53.409Z,99455.44
2022-12-11T18:25:21.897Z,99454.29
2022-12-11T18:27:50.857Z,99456.27
2022-12-11T18:30:19.752Z,99451.50
2022-12-11T18:35:33.237Z,99453.66
2022-12-11T18:38:16.665Z,99453.21
2022-12-11T18:40:48.233Z,99458.58
2022-12-11T18:43:16.607Z,99458.28
2022-12-11T18:45:45.840Z,99455.02
2022-12-11T18:48:15.092Z,99448.36
2022-12-11T18:50:51.594Z,99440.66
2022-12-11T18:53:19.949Z,99444.45
2022-12-11T18:55:49.617Z,99451.50
2022-12-11T18:58:19.774Z,99445.30
2022-12-11T19:00:47.968Z,99439.40
2022-12-11T19:03:16.317Z,99438.45
2022-12-11T19:05:44.596Z,99438.73
2022-12-11T19:08:14.077Z,99436.50
2022-12-11T19:10:47.450Z,99432.55
2022-12-11T19:13:15.702Z,99433.55
2022-12-11T19:15:44.800Z,99430.59
2022-12-11T19:18:14.670Z,99432.70
2022-12-11T19:20:49.454Z,99434.08
2022-12-11T19:23:23.252Z,99437.33
2022-12-11T19:25:52.157Z,99440.80
2022-12-11T19:28:20.359Z,99446.81
2022-12-11T19:30:52.597Z,99437.61
2022-12-11T19:33:20.924Z,99441.86
2022-12-11T19:35:49.130Z,99445.43
2022-12-11T19:38:17.311Z,99443.77
2022-12-11T19:40:47.360Z,99441.80
2022-12-11T19:43:15.673Z,99443.00
2022-12-11T19:45:46.041Z,99440.02
2022-12-11T19:48:17.509Z,99442.42
2022-12-11T19:50:51.201Z,99435.69
2022-12-11T19:53:19.480Z,99428.87
2022-12-11T19:55:52.323Z,99425.33
2022-12-11T19:58:23.123Z,99425.58
2022-12-11T20:00:51.397Z,99422.84
2022-12-11T20:03:45.285Z,99421.77
2022-12-11T20:06:13.928Z,99424.67
2022-12-11T20:08:45.178Z,99421.39
2022-12-11T20:11:18.692Z,99420.16
2022-12-11T20:13:48.401Z,99422.73
2022-12-11T20:16:28.831Z,99420.18
2022-12-11T20:19:09.165Z,99419.56
2022-12-11T20:21:37.480Z,99415.13
2022-12-11T20:24:05.948Z,99419.80
2022-12-11T20:26:36.545Z,99418.91
2022-12-11T20:29:08.155Z,99422.98
2022-12-11T20:32:04.958Z,99419.36
2022-12-11T20:34:52.463Z,99421.33
2022-12-11T20:37:20.694Z,99415.65
2022-12-11T20:39:51.276Z,99410.14
2022-12-11T20:42:57.526Z,99407.39
2022-12-11T20:45:27.362Z,99406.04
2022-12-11T20:47:56.912Z,99409.59
2022-12-11T20:50:28.301Z,99407.56
2022-12-11T20:52:56.846Z,99403.56
2022-12-11T20:55:26.504Z,99404.20
2022-12-11T21:01:29.255Z,99406.99
2022-12-11T21:09:09.773Z,99406.02
2022-12-11T21:11:57.594Z,99403.08
2022-12-11T21:14:29.283Z,99398.45
2022-12-11T21:16:58.250Z,99389.67
2022-12-11T21:19:27.406Z,99388.96
2022-12-11T21:21:56.396Z,99386.32
2022-12-11T21:24:27.547Z,99386.27
2022-12-11T21:26:59.196Z,99384.91
2022-12-11T21:29:29.547Z,99385.48
2022-12-11T21:31:58.189Z,99382.81
2022-12-11T21:34:27.019Z,99376.02
2022-12-11T21:36:57.505Z,99375.31
2022-12-11T21:39:28.299Z,99372.20
2022-12-11T21:41:58.218Z,99370.06
2022-12-11T21:47:14.836Z,99372.13
2022-12-11T21:49:46.161Z,99369.34
2022-12-11T21:52:17.108Z,99367.64
2022-12-11T21:54:45.467Z,99361.05
2022-12-11T21:57:13.696Z,99363.22
2022-12-11T21:59:47.294Z,99361.27
2022-12-11T22:02:15.661Z,99360.62
2022-12-11T22:04:43.872Z,99357.58
2022-12-11T22:07:12.012Z,99365.96
2022-12-11T22:09:40.224Z,99366.25
2022-12-11T22:12:10.072Z,99366.92
2022-12-11T22:14:38.260Z,99365.16
2022-12-11T22:17:11.215Z,99365.86
2022-12-11T22:19:39.361Z,99361.04
2022-12-11T22:22:08.573Z,99360.48
2022-12-11T22:24:42.883Z,99358.71
2022-12-11T22:27:12.038Z,99358.63
2022-12-11T22:29:43.202Z,99358.07
2022-12-11T22:32:14.555Z,99351.06
2022-12-11T22:34:42.754Z,99348.62
2022-12-11T22:37:13.605Z,99346.41
2022-12-11T22:39:47.020Z,99343.33
2022-12-11T22:42:21.947Z,99336.46
2022-12-11T22:44:53.145Z,99339.88
2022-12-11T22:47:21.464Z,99340.25
2022-12-11T22:49:50.267Z,99341.88
2022-12-11T22:52:19.655Z,99343.33
2022-12-11T22:54:51.666Z,99345.84
2022-12-11T22:57:22.896Z,99342.88
2022-12-11T22:59:56.724Z,99343.57
2022-12-11T23:02:27.526Z,99347.60
2022-12-11T23:04:55.859Z,99354.48
2022-12-11T23:07:26.659Z,99353.79
2022-12-11T23:10:32.509Z,99352.02
2022-12-11T23:13:05.455Z,99353.81
2022-12-11T23:15:34.852Z,99354.05
2022-12-11T23:18:10.979Z,99348.63
2022-12-11T23:20:40.696Z,99330.98
2022-12-11T23:23:12.796Z,99339.34
2022-12-11T23:25:43.568Z,99334.52
2022-12-11T23:28:28.470Z,99329.46
